Time;durP1;ratioP1;P1;durP2;ratioP2;P2;SDS_P1;SDS_P2;PMS_P1;PMS_P2;Temp;Humidity;BMP_temperature;BMP_pressure;BME280_temperature;BME280_humidity;BME280_pressure;Samples;Min_cycle;Max_cycle;Signal;HPM_P1;HPM_P2
2024/02/13 00:01:43;;;;;;;;;;;;;;;4.70;93.22;99510.88;137181;1276;22384;-76
2024/02/13 00:04:46;;;;;;;;;;;;;;;4.68;93.60;99509.48;137146;1276;22391;-76
2024/02/13 00:07:47;;;;;;;;;;;;;;;4.70;93.64;99514.70;137129;1276;23143;-78
2024/02/13 00:10:48;;;;;;;;;;;;;;;4.76;93.99;99514.02;137138;1277;22414;-76
2024/02/13 00:13:48;;;;;;;;;;;;;;;4.81;94.16;99519.36;137165;1276;22409;-76
2024/02/13 00:16:49;;;;;;;;;;;;;;;4.81;94.03;99517.70;137168;1277;22399;-77
2024/02/13 00:19:53;;;;;;;;;;;;;;;4.83;94.12;99524.59;137180;1276;22403;-77
2024/02/13 00:22:55;;;;;;;;;;;;;;;4.84;94.12;99528.71;137153;1273;22400;-80
2024/02/13 00:25:56;;;;;;;;;;;;;;;4.84;94.29;99529.57;137159;1276;22390;-76
2024/02/13 00:28:56;;;;;;;;;;;;;;;4.86;94.13;99527.63;137199;1276;22372;-77
2024/02/13 00:31:57;;;;;;;;;;;;;;;4.87;94.22;99529.62;137130;1276;22552;-76
2024/02/13 00:35:01;;;;;;;;;;;;;;;4.90;94.23;99533.73;137184;1277;23189;-76
2024/02/13 00:38:03;;;;;;;;;;;;;;;4.92;94.32;99535.75;137173;1273;22355;-77
2024/02/13 00:41:08;;;;;;;;;;;;;;;4.96;94.54;99536.89;137141;1277;23431;-78
2024/02/13 00:44:19;;;;;;;;;;;;;;;4.98;94.17;99538.05;137155;1277;22274;-76
2024/02/13 00:47:28;;;;;;;;;;;;;;;5.00;94.17;99541.24;137165;1277;22372;-76
2024/02/13 00:50:32;;;;;;;;;;;;;;;5.01;94.34;99547.83;137153;1277;23025;-77
2024/02/13 00:53:37;;;;;;;;;;;;;;;5.04;94.38;99557.27;137131;1277;22419;-76
2024/02/13 00:56:38;;;;;;;;;;;;;;;5.05;94.50;99561.55;137121;1277;23545;-76
2024/02/13 00:59:40;;;;;;;;;;;;;;;5.07;94.37;99562.64;136938;1277;22401;-76
2024/02/13 01:02:40;;;;;;;;;;;;;;;5.09;94.40;99567.82;137138;1277;22344;-77
2024/02/13 01:05:41;;;;;;;;;;;;;;;5.12;94.38;99576.32;137158;1276;22384;-76
2024/02/13 01:08:43;;;;;;;;;;;;;;;5.14;94.37;99576.70;137162;1277;23068;-77
2024/02/13 01:11:49;;;;;;;;;;;;;;;5.13;94.30;99574.36;137143;1276;22420;-78
2024/02/13 01:14:52;;;;;;;;;;;;;;;5.13;94.64;99577.45;137162;1277;22368;-77
2024/02/13 01:17:56;;;;;;;;;;;;;;;5.15;94.40;99581.17;137168;1277;22307;-76
2024/02/13 01:20:57;;;;;;;;;;;;;;;5.13;94.37;99578.91;136990;1276;22357;-76
2024/02/13 01:23:58;;;;;;;;;;;;;;;5.13;94.50;99577.28;137162;1276;22367;-76
2024/02/13 01:26:59;;;;;;;;;;;;;;;5.15;94.35;99579.20;137171;1276;22448;-76
2024/02/13 01:29:59;;;;;;;;;;;;;;;5.13;94.17;99583.42;137127;1276;22406;-77
2024/02/13 01:33:00;;;;;;;;;;;;;;;5.06;93.74;99581.85;136955;1276;22384;-76
2024/02/13 01:36:01;;;;;;;;;;;;;;;4.98;93.84;99587.89;137126;1276;22971;-78
2024/02/13 01:39:09;;;;;;;;;;;;;;;4.93;93.92;99587.75;137168;1276;22918;-76
2024/02/13 01:42:18;;;;;;;;;;;;;;;4.90;93.81;99592.19;136958;1272;22270;-77
2024/02/13 01:45:25;;;;;;;;;;;;;;;4.88;93.71;99598.96;137165;1276;23034;-76
2024/02/13 01:48:32;;;;;;;;;;;;;;;4.77;93.11;99602.80;137131;1276;23160;-77
2024/02/13 01:51:41;;;;;;;;;;;;;;;4.68;93.50;99600.98;137138;1276;22356;-77
2024/02/13 01:54:42;;;;;;;;;;;;;;;4.60;93.27;99604.70;137169;1273;23073;-77
2024/02/13 01:57:45;;;;;;;;;;;;;;;4.50;93.39;99608.17;137108;1276;23593;-76
2024/02/13 02:00:47;;;;;;;;;;;;;;;4.44;93.50;99614.66;137128;1276;23424;-78
2024/02/13 02:03:49;;;;;;;;;;;;;;;4.41;93.92;99616.60;137147;1276;22394;-76
2024/02/13 02:06:49;;;;;;;;;;;;;;;4.39;93.83;99624.81;137123;1276;22394;-80
2024/02/13 02:09:56;;;;;;;;;;;;;;;4.36;94.04;99622.66;137141;1276;22382;-76
2024/02/13 02:12:59;;;;;;;;;;;;;;;4.32;94.07;99625.42;137158;1276;23494;-76
2024/02/13 02:16:04;;;;;;;;;;;;;;;4.30;94.90;99625.61;137137;1276;22638;-76
2024/02/13 02:20:30;;;;;;;;;;;;;;;4.25;95.37;99631.51;137164;1277;22435;-76
2024/02/13 02:23:47;;;;;;;;;;;;;;;4.25;96.00;99634.65;136974;1276;23253;-76
2024/02/13 02:27:51;;;;;;;;;;;;;;;4.24;96.08;99639.47;137149;1276;22404;-77
2024/02/13 02:31:48;;;;;;;;;;;;;;;4.23;96.39;99645.89;137104;1276;22429;-76
2024/02/13 02:34:49;;;;;;;;;;;;;;;4.21;97.05;99645.10;137109;1276;23292;-79
2024/02/13 02:37:52;;;;;;;;;;;;;;;4.22;96.61;99652.60;137166;1276;22306;-77
2024/02/13 02:40:53;;;;;;;;;;;;;;;4.20;96.67;99657.69;137136;1276;23135;-77
2024/02/13 02:43:57;;;;;;;;;;;;;;;4.21;96.85;99658.48;137167;1276;22390;-76
2024/02/13 02:46:59;;;;;;;;;;;;;;;4.21;97.12;99660.45;136964;1276;23204;-76
2024/02/13 02:50:02;;;;;;;;;;;;;;;4.22;97.12;99666.56;137182;1272;23481;-76
2024/02/13 02:53:06;;;;;;;;;;;;;;;4.25;97.49;99669.69;137138;1276;23159;-80
2024/02/13 02:56:10;;;;;;;;;;;;;;;4.31;97.66;99677.55;137163;1272;22401;-77
2024/02/13 02:59:14;;;;;;;;;;;;;;;4.37;98.14;99678.41;137190;1276;22389;-77
2024/02/13 03:02:15;;;;;;;;;;;;;;;4.43;98.07;99688.72;137132;1276;22366;-76
2024/02/13 03:05:21;;;;;;;;;;;;;;;4.47;98.50;99693.10;137142;1276;22379;-77
2024/02/13 03:08:28;;;;;;;;;;;;;;;4.52;98.35;99700.54;136979;1274;22303;-76
2024/02/13 03:11:33;;;;;;;;;;;;;;;4.55;98.05;99701.20;137127;1276;23157;-75
2024/02/13 03:14:33;;;;;;;;;;;;;;;4.56;98.35;99706.14;137119;1276;22455;-78
2024/02/13 03:17:37;;;;;;;;;;;;;;;4.58;98.15;99714.89;137164;1276;23066;-76
2024/02/13 03:20:39;;;;;;;;;;;;;;;4.59;98.12;99723.58;137114;1276;22374;-76
2024/02/13 03:23:41;;;;;;;;;;;;;;;4.59;98.22;99723.16;137153;1276;22387;-76
2024/02/13 03:26:42;;;;;;;;;;;;;;;4.57;97.81;99722.19;137148;1274;23164;-76
2024/02/13 03:29:43;;;;;;;;;;;;;;;4.53;97.55;99724.95;137171;1276;22408;-77
2024/02/13 03:32:44;;;;;;;;;;;;;;;4.48;97.34;99732.26;137126;1276;22862;-76
2024/02/13 03:35:51;;;;;;;;;;;;;;;4.42;97.27;99741.21;137165;1276;22393;-77
2024/02/13 03:39:06;;;;;;;;;;;;;;;4.36;97.47;99751.04;137117;1276;22283;-76
2024/02/13 03:42:16;;;;;;;;;;;;;;;4.28;97.27;99752.21;137190;1276;22346;-76
2024/02/13 03:45:17;;;;;;;;;;;;;;;4.24;97.52;99761.52;137137;1276;22253;-77
2024/02/13 03:48:21;;;;;;;;;;;;;;;4.18;97.32;99782.35;137175;1276;22416;-76
2024/02/13 03:51:22;;;;;;;;;;;;;;;4.14;97.77;99786.52;137137;1276;22359;-77
2024/02/13 03:54:23;;;;;;;;;;;;;;;4.15;97.86;99797.64;137145;1276;23425;-77
2024/02/13 03:57:24;;;;;;;;;;;;;;;4.17;98.18;99800.30;137134;1273;22385;-76
2024/02/13 04:00:24;;;;;;;;;;;;;;;4.21;98.54;99805.00;137111;1276;22382;-76
2024/02/13 04:03:26;;;;;;;;;;;;;;;4.24;98.52;99810.19;137188;1276;22380;-76
2024/02/13 04:06:27;;;;;;;;;;;;;;;4.26;98.32;99811.24;137149;1276;22408;-76
2024/02/13 04:13:15;;;;;;;;;;;;;;;4.32;98.30;99814.08;136949;1276;23265;-76
2024/02/13 04:16:18;;;;;;;;;;;;;;;4.32;98.07;99808.93;137171;1276;22323;-77
2024/02/13 04:19:28;;;;;;;;;;;;;;;4.30;97.92;99808.30;137154;1276;22272;-76
2024/02/13 04:22:43;;;;;;;;;;;;;;;4.25;97.83;99817.45;137171;1276;22409;-76
2024/02/13 04:25:47;;;;;;;;;;;;;;;4.22;97.42;99824.19;137140;1276;22368;-78
2024/02/13 04:28:51;;;;;;;;;;;;;;;4.21;97.82;99833.39;137149;1276;22506;-76
2024/02/13 04:31:54;;;;;;;;;;;;;;;4.23;97.79;99835.17;137177;1276;22418;-76
2024/02/13 04:34:56;;;;;;;;;;;;;;;4.26;97.79;99839.41;137125;1276;22384;-76
2024/02/13 04:38:01;;;;;;;;;;;;;;;4.26;97.95;99839.02;137149;1276;22413;-76
2024/02/13 04:41:03;;;;;;;;;;;;;;;4.24;97.71;99835.76;137165;1276;23195;-76
2024/02/13 04:44:13;;;;;;;;;;;;;;;4.21;97.61;99840.17;137147;1276;22251;-77
2024/02/13 04:47:31;;;;;;;;;;;;;;;4.17;97.24;99846.48;137160;1276;23531;-82
2024/02/13 04:50:37;;;;;;;;;;;;;;;4.13;97.52;99851.64;137150;1276;22399;-76
2024/02/13 04:53:40;;;;;;;;;;;;;;;4.09;97.54;99848.25;137178;1276;22310;-76
2024/02/13 04:56:41;;;;;;;;;;;;;;;4.07;97.47;99852.92;137179;1265;22417;-76
2024/02/13 04:59:47;;;;;;;;;;;;;;;4.03;97.30;99856.04;137194;1276;22385;-76
2024/02/13 05:14:36;;;;;;;;;;;;;;;3.99;97.48;99882.54;137025;1277;23235;-77
2024/02/13 05:17:37;;;;;;;;;;;;;;;3.99;97.80;99886.39;137129;1277;22447;-76
2024/02/13 05:21:13;;;;;;;;;;;;;;;;;;;;;
2024/02/13 05:27:55;;;;;;;;;;;;;;;3.92;97.41;99893.42;137206;1277;23025;-77
2024/02/13 05:30:59;;;;;;;;;;;;;;;3.90;97.32;99902.42;137144;1277;22418;-76
2024/02/13 05:34:06;;;;;;;;;;;;;;;3.83;97.31;99899.42;137171;1277;23099;-74
2024/02/13 05:37:20;;;;;;;;;;;;;;;3.77;96.96;99904.97;137202;1277;22410;-79
2024/02/13 05:40:24;;;;;;;;;;;;;;;3.71;96.68;99903.13;137215;1277;23113;-76
2024/02/13 05:43:38;;;;;;;;;;;;;;;3.62;96.96;99906.98;137182;1277;22451;-76
2024/02/13 05:46:39;;;;;;;;;;;;;;;3.59;97.00;99916.44;137166;1277;22393;-76
2024/02/13 05:49:39;;;;;;;;;;;;;;;3.57;96.80;99920.87;137154;1277;22382;-76
2024/02/13 05:52:40;;;;;;;;;;;;;;;3.51;97.00;99928.15;137193;1276;23300;-76
2024/02/13 05:55:41;;;;;;;;;;;;;;;3.46;96.95;99933.63;137188;1276;22381;-77
2024/02/13 05:58:42;;;;;;;;;;;;;;;3.41;96.94;99942.27;137189;1269;22413;-77
2024/02/13 06:01:43;;;;;;;;;;;;;;;3.38;97.29;99948.48;137142;1276;22396;-79
2024/02/13 06:04:44;;;;;;;;;;;;;;;3.34;97.11;99953.48;137174;1276;22397;-77
2024/02/13 06:07:44;;;;;;;;;;;;;;;3.33;97.60;99956.77;137169;1276;22405;-77
2024/02/13 06:10:45;;;;;;;;;;;;;;;3.32;97.71;99959.06;137152;1276;22429;-78
2024/02/13 06:13:45;;;;;;;;;;;;;;;3.33;97.85;99963.40;137189;1276;22399;-78
2024/02/13 06:16:46;;;;;;;;;;;;;;;3.31;97.49;99970.74;137182;1276;22418;-77
2024/02/13 06:19:50;;;;;;;;;;;;;;;3.27;97.68;99978.21;137150;1276;22448;-77
2024/02/13 06:22:53;;;;;;;;;;;;;;;3.26;97.85;99982.52;137158;1276;22368;-77
2024/02/13 06:25:54;;;;;;;;;;;;;;;3.26;98.10;99984.04;137200;1276;22383;-77
2024/02/13 06:28:58;;;;;;;;;;;;;;;3.27;97.86;99991.11;137179;1276;22411;-77
2024/02/13 06:31:59;;;;;;;;;;;;;;;3.27;97.99;99992.23;137175;1276;22407;-79
2024/02/13 06:34:59;;;;;;;;;;;;;;;3.28;97.92;100001.21;137139;1276;22398;-82
2024/02/13 06:38:00;;;;;;;;;;;;;;;3.30;98.03;100008.72;137190;1276;23102;-76
2024/02/13 06:41:05;;;;;;;;;;;;;;;3.32;97.96;100016.30;137217;1276;22371;-78
2024/02/13 06:44:06;;;;;;;;;;;;;;;3.38;97.90;100016.48;137180;1276;23505;-76
2024/02/13 06:47:07;;;;;;;;;;;;;;;3.47;97.85;100021.69;137232;1276;22413;-78
2024/02/13 06:50:11;;;;;;;;;;;;;;;3.58;98.01;100027.48;137173;1276;22428;-78
2024/02/13 06:53:11;;;;;;;;;;;;;;;3.70;98.37;100032.27;137208;1276;22436;-80
2024/02/13 06:56:16;;;;;;;;;;;;;;;3.84;98.01;100032.16;137192;1276;22409;-77
2024/02/13 06:59:21;;;;;;;;;;;;;;;3.97;97.85;100033.77;137138;1276;22333;-77
2024/02/13 07:02:25;;;;;;;;;;;;;;;4.04;97.55;100035.61;136872;1276;22368;-79
2024/02/13 07:05:32;;;;;;;;;;;;;;;4.05;97.54;100037.45;137120;1276;22276;-77
2024/02/13 07:08:36;;;;;;;;;;;;;;;4.03;97.21;100039.86;137108;1276;22287;-78
2024/02/13 07:11:36;;;;;;;;;;;;;;;4.08;97.36;100039.11;137118;1276;22409;-78
2024/02/13 07:14:37;;;;;;;;;;;;;;;4.34;97.91;100035.92;137136;1276;22373;-79
2024/02/13 07:17:38;;;;;;;;;;;;;;;4.72;98.35;100040.04;137187;1276;22439;-78
2024/02/13 07:20:39;;;;;;;;;;;;;;;5.13;98.28;100037.05;137163;1276;22392;-78
2024/02/13 07:23:39;;;;;;;;;;;;;;;5.55;98.17;100036.70;137178;1276;22385;-79
2024/02/13 07:26:45;;;;;;;;;;;;;;;5.98;97.79;100038.69;136950;1276;22493;-77
2024/02/13 07:29:49;;;;;;;;;;;;;;;6.29;97.11;100038.59;137118;1273;22921;-78
2024/02/13 07:32:52;;;;;;;;;;;;;;;6.50;96.23;100051.52;137191;1276;22357;-78
2024/02/13 07:36:00;;;;;;;;;;;;;;;6.63;95.21;100055.53;137143;1276;22441;-78
2024/02/13 07:39:01;;;;;;;;;;;;;;;6.67;94.44;100066.77;137184;1276;23055;-78
2024/02/13 07:42:10;;;;;;;;;;;;;;;6.58;93.70;100079.25;137162;1276;22402;-78
2024/02/13 07:45:10;;;;;;;;;;;;;;;6.39;93.55;100087.43;137109;1276;23063;-78
2024/02/13 07:48:12;;;;;;;;;;;;;;;6.19;93.52;100093.16;137163;1276;22427;-78
2024/02/13 07:51:14;;;;;;;;;;;;;;;5.99;93.30;100094.41;137177;1276;22465;-78
2024/02/13 07:54:14;;;;;;;;;;;;;;;5.76;93.14;100097.77;137130;1276;23012;-78
2024/02/13 07:57:21;;;;;;;;;;;;;;;5.58;93.27;100098.39;137135;1276;22376;-80
2024/02/13 08:00:26;;;;;;;;;;;;;;;5.40;93.65;100107.85;137111;1276;22285;-79
2024/02/13 08:03:34;;;;;;;;;;;;;;;5.29;93.82;100114.80;137127;1266;22362;-78
2024/02/13 08:06:37;;;;;;;;;;;;;;;5.20;94.17;100115.91;137105;1276;23085;-77
2024/02/13 08:09:39;;;;;;;;;;;;;;;5.15;94.55;100115.48;137138;1276;22396;-77
2024/02/13 08:12:40;;;;;;;;;;;;;;;5.09;94.68;100117.17;137133;1269;22405;-77
2024/02/13 08:19:13;;;;;;;;;;;;;;;5.06;95.44;100117.98;136880;1276;22451;-77
2024/02/13 08:22:15;;;;;;;;;;;;;;;5.03;95.35;100119.77;137102;1276;22390;-81
2024/02/13 08:25:15;;;;;;;;;;;;;;;5.05;95.47;100124.02;137156;1276;23383;-78
2024/02/13 08:28:16;;;;;;;;;;;;;;;5.06;95.60;100127.42;137135;1276;23265;-77
2024/02/13 08:31:17;;;;;;;;;;;;;;;5.06;95.79;100131.80;137111;1276;23277;-77
2024/02/13 08:34:18;;;;;;;;;;;;;;;5.04;95.47;100132.52;137105;1277;22416;-76
2024/02/13 08:37:22;;;;;;;;;;;;;;;5.01;95.29;100134.33;137139;1276;22393;-77
2024/02/13 08:40:22;;;;;;;;;;;;;;;5.00;95.61;100140.40;137121;1276;23192;-77
2024/02/13 08:43:23;;;;;;;;;;;;;;;5.01;95.74;100148.18;137091;1276;22551;-78
2024/02/13 08:46:26;;;;;;;;;;;;;;;4.99;95.49;100151.24;137137;1276;23088;-78
2024/02/13 08:49:26;;;;;;;;;;;;;;;4.94;95.28;100151.73;137138;1276;23203;-81
2024/02/13 08:52:27;;;;;;;;;;;;;;;4.95;95.42;100160.30;137149;1276;23285;-76
2024/02/13 08:55:28;;;;;;;;;;;;;;;4.97;95.65;100162.02;137149;1276;23430;-78
2024/02/13 08:58:31;;;;;;;;;;;;;;;4.97;95.50;100171.83;137105;1276;23194;-76
2024/02/13 09:01:32;;;;;;;;;;;;;;;4.99;95.56;100176.95;137127;1276;22399;-77
2024/02/13 09:04:46;;;;;;;;;;;;;;;;;;;;;
2024/02/13 09:07:58;;;;;;;;;;;;;;;5.04;95.55;100176.91;137156;1276;23047;-77
2024/02/13 09:11:02;;;;;;;;;;;;;;;5.11;95.97;100177.99;137109;1276;23459;-76
2024/02/13 09:14:03;;;;;;;;;;;;;;;5.20;96.20;100183.02;137138;1276;22407;-79
2024/02/13 09:17:04;;;;;;;;;;;;;;;5.30;96.03;100188.89;137167;1276;22395;-77
2024/02/13 09:20:06;;;;;;;;;;;;;;;5.35;95.97;100194.71;137035;1276;22401;-76
2024/02/13 09:23:07;;;;;;;;;;;;;;;5.36;95.52;100196.40;137128;1276;22387;-77
2024/02/13 09:30:01;;;;;;;;;;;;;;;5.38;95.41;100206.39;137115;1276;22444;-77
2024/02/13 09:33:03;;;;;;;;;;;;;;;5.41;95.05;100211.62;136912;1276;271625;-77
2024/02/13 09:36:05;;;;;;;;;;;;;;;5.43;95.06;100219.17;137147;1273;23223;-78
2024/02/13 09:39:08;;;;;;;;;;;;;;;5.46;95.25;100217.14;137154;1276;22397;-79
2024/02/13 09:42:09;;;;;;;;;;;;;;;5.44;94.67;100224.58;137149;1276;22401;-76
2024/02/13 09:45:11;;;;;;;;;;;;;;;5.41;94.48;100223.52;137104;1276;22422;-76
2024/02/13 09:48:21;;;;;;;;;;;;;;;5.40;94.80;100225.70;137130;1276;22381;-78
2024/02/13 09:51:23;;;;;;;;;;;;;;;5.42;94.71;100226.65;136888;1276;23181;-77
2024/02/13 09:54:24;;;;;;;;;;;;;;;5.38;94.34;100232.92;137126;1276;23095;-77
2024/02/13 09:57:25;;;;;;;;;;;;;;;5.38;94.12;100233.11;137144;1276;23156;-83
2024/02/13 10:00:27;;;;;;;;;;;;;;;5.38;93.99;100235.69;137004;1276;23092;-77
2024/02/13 10:03:27;;;;;;;;;;;;;;;5.44;94.31;100244.02;137020;1276;22406;-78
2024/02/13 10:06:28;;;;;;;;;;;;;;;5.47;93.70;100243.77;137129;1276;22419;-81
2024/02/13 10:09:29;;;;;;;;;;;;;;;5.47;93.18;100250.89;137113;1276;22386;-77
2024/02/13 10:12:30;;;;;;;;;;;;;;;5.48;92.94;100255.38;137121;1273;22430;-78
2024/02/13 10:15:39;;;;;;;;;;;;;;;5.52;93.09;100254.90;137091;1276;22386;-78
2024/02/13 10:18:40;;;;;;;;;;;;;;;5.53;91.90;100254.68;137122;1276;23277;-77
2024/02/13 10:21:41;;;;;;;;;;;;;;;5.49;91.58;100257.98;137112;1276;23074;-78
2024/02/13 10:24:46;;;;;;;;;;;;;;;5.51;91.74;100260.05;137103;1276;22531;-77
2024/02/13 10:27:53;;;;;;;;;;;;;;;5.53;91.62;100261.25;136998;1276;22476;-77
2024/02/13 10:30:53;;;;;;;;;;;;;;;5.59;91.90;100271.48;136996;1267;22289;-78
2024/02/13 10:33:54;;;;;;;;;;;;;;;5.60;90.61;100268.77;137128;1276;22603;-77
2024/02/13 10:36:55;;;;;;;;;;;;;;;5.56;90.36;100273.69;137077;1276;22379;-78
2024/02/13 10:40:00;;;;;;;;;;;;;;;5.56;90.44;100273.09;137133;1276;22430;-77
2024/02/13 10:43:06;;;;;;;;;;;;;;;5.56;90.25;100279.83;137079;1276;22275;-76
2024/02/13 10:46:09;;;;;;;;;;;;;;;5.55;90.06;100281.63;137097;1276;22457;-77
2024/02/13 10:49:14;;;;;;;;;;;;;;;5.49;89.17;100283.25;137091;1276;22377;-77
2024/02/13 10:52:19;;;;;;;;;;;;;;;5.42;89.79;100286.59;137119;1276;22422;-76
2024/02/13 10:55:25;;;;;;;;;;;;;;;5.38;89.18;100289.09;137029;1276;22490;-78
2024/02/13 10:58:29;;;;;;;;;;;;;;;5.37;89.49;100290.89;137144;1276;22460;-77
2024/02/13 11:01:36;;;;;;;;;;;;;;;5.40;89.20;100292.17;136980;1276;22560;-76
2024/02/13 11:04:41;;;;;;;;;;;;;;;5.49;89.11;100295.68;137106;1276;22398;-78
2024/02/13 11:07:42;;;;;;;;;;;;;;;5.58;89.02;100299.44;137137;1276;22383;-77
2024/02/13 11:10:42;;;;;;;;;;;;;;;5.64;88.82;100302.52;137104;1270;22470;-77
2024/02/13 11:13:43;;;;;;;;;;;;;;;5.61;87.70;100304.65;137114;1276;22411;-77
2024/02/13 11:16:57;;;;;;;;;;;;;;;5.55;87.13;100306.20;137106;1276;22378;-77
2024/02/13 11:19:58;;;;;;;;;;;;;;;5.48;86.10;100313.14;137103;1276;22376;-77
2024/02/13 11:23:02;;;;;;;;;;;;;;;5.39;85.52;100311.23;137134;1265;22397;-77
2024/02/13 11:26:07;;;;;;;;;;;;;;;5.31;85.53;100311.18;137070;1276;22404;-77
2024/02/13 11:29:09;;;;;;;;;;;;;;;5.28;85.77;100315.67;137117;1276;22268;-77
2024/02/13 11:32:10;;;;;;;;;;;;;;;5.26;85.58;100317.62;136990;1276;22402;-80
2024/02/13 11:35:17;;;;;;;;;;;;;;;5.24;85.58;100320.83;137101;1276;22380;-79
2024/02/13 11:38:28;;;;;;;;;;;;;;;5.27;86.23;100317.02;137097;1276;22269;-79
2024/02/13 11:41:30;;;;;;;;;;;;;;;5.32;85.72;100320.11;137048;1276;22414;-78
2024/02/13 11:44:41;;;;;;;;;;;;;;;5.37;86.16;100320.50;137016;1275;22279;-77
2024/02/13 11:47:43;;;;;;;;;;;;;;;5.46;85.78;100313.35;137066;1270;22387;-79
2024/02/13 11:50:50;;;;;;;;;;;;;;;5.49;84.98;100317.66;137091;1276;22403;-78
2024/02/13 11:54:05;;;;;;;;;;;;;;;;;;;;;
2024/02/13 11:57:13;;;;;;;;;;;;;;;5.55;84.28;100320.46;137095;1276;22280;-79
2024/02/13 12:00:21;;;;;;;;;;;;;;;5.56;83.64;100322.05;137086;1270;22258;-77
2024/02/13 12:03:27;;;;;;;;;;;;;;;5.58;84.00;100327.19;137058;1276;22291;-80
2024/02/13 12:06:46;;;;;;;;;;;;;;;;;;;;;
2024/02/13 12:13:59;;;;;;;;;;;;;;;5.65;82.81;100325.55;137087;1276;22445;-77
2024/02/13 12:17:07;;;;;;;;;;;;;;;5.67;82.20;100329.09;137095;1276;22443;-81
2024/02/13 12:20:12;;;;;;;;;;;;;;;5.69;82.70;100329.26;137098;1276;22434;-76
2024/02/13 12:23:14;;;;;;;;;;;;;;;5.73;82.26;100330.13;137073;1276;22393;-78
2024/02/13 12:26:16;;;;;;;;;;;;;;;5.75;82.37;100330.67;137089;1276;22541;-79
2024/02/13 12:29:18;;;;;;;;;;;;;;;5.76;82.06;100333.38;137079;1276;22405;-77
2024/02/13 12:32:22;;;;;;;;;;;;;;;5.81;82.53;100336.66;137070;1273;22428;-84
2024/02/13 12:35:31;;;;;;;;;;;;;;;5.84;81.76;100341.48;137062;1276;22416;-78
2024/02/13 12:38:35;;;;;;;;;;;;;;;5.85;81.13;100344.71;137113;1276;22283;-78
2024/02/13 12:41:36;;;;;;;;;;;;;;;5.89;81.53;100344.80;137070;1276;22500;-77
2024/02/13 12:44:37;;;;;;;;;;;;;;;5.97;81.93;100342.32;136959;1276;22380;-79
2024/02/13 12:47:38;;;;;;;;;;;;;;;6.06;81.47;100341.73;137067;1270;22392;-76
2024/02/13 12:50:38;;;;;;;;;;;;;;;6.12;80.70;100343.91;137017;1276;22422;-76
2024/02/13 12:53:39;;;;;;;;;;;;;;;6.15;80.93;100344.84;137061;1276;22386;-76
2024/02/13 12:56:40;;;;;;;;;;;;;;;6.16;80.01;100349.36;137118;1273;22407;-76
2024/02/13 12:59:41;;;;;;;;;;;;;;;6.13;79.21;100345.94;137081;1276;22381;-77
2024/02/13 13:02:43;;;;;;;;;;;;;;;6.09;79.58;100348.52;137117;1273;22436;-76
2024/02/13 13:05:44;;;;;;;;;;;;;;;6.09;79.44;100349.96;136977;1276;22375;-76
2024/02/13 13:08:46;;;;;;;;;;;;;;;6.10;80.05;100351.12;137126;1276;22386;-76
2024/02/13 13:11:55;;;;;;;;;;;;;;;6.12;79.19;100348.57;137095;1276;23154;-78
2024/02/13 13:14:59;;;;;;;;;;;;;;;6.10;79.06;100351.25;137108;1275;22269;-76
2024/02/13 13:18:03;;;;;;;;;;;;;;;6.08;79.23;100350.55;137091;1276;22389;-77
2024/02/13 13:21:04;;;;;;;;;;;;;;;6.11;79.82;100356.75;136994;1276;22407;-76
2024/02/13 13:24:08;;;;;;;;;;;;;;;6.16;79.79;100358.08;137078;1276;22374;-76
2024/02/13 13:27:09;;;;;;;;;;;;;;;6.18;79.32;100363.60;137096;1276;22426;-77
2024/02/13 13:30:15;;;;;;;;;;;;;;;6.15;79.14;100362.77;137068;1276;22426;-80
2024/02/13 13:33:17;;;;;;;;;;;;;;;6.11;78.39;100362.20;137063;1272;23291;-76
2024/02/13 13:36:18;;;;;;;;;;;;;;;6.04;78.53;100366.86;137103;1273;22354;-78
2024/02/13 13:39:20;;;;;;;;;;;;;;;6.00;78.53;100366.88;137139;1276;22406;-77
2024/02/13 13:42:23;;;;;;;;;;;;;;;6.00;79.03;100370.38;137087;1276;22361;-78
2024/02/13 13:45:26;;;;;;;;;;;;;;;6.02;79.21;100374.89;137112;1276;22368;-76
2024/02/13 13:48:28;;;;;;;;;;;;;;;6.08;78.90;100376.73;137096;1276;22387;-76
2024/02/13 13:51:29;;;;;;;;;;;;;;;6.15;79.26;100382.04;137077;1276;22352;-77
2024/02/13 13:54:30;;;;;;;;;;;;;;;6.18;78.96;100385.73;136938;1276;22400;-76
2024/02/13 13:57:31;;;;;;;;;;;;;;;6.19;78.55;100388.21;137116;1276;22397;-76
2024/02/13 14:00:32;;;;;;;;;;;;;;;6.18;78.72;100387.64;137080;1276;23236;-78
2024/02/13 14:03:35;;;;;;;;;;;;;;;6.16;78.52;100387.25;137109;1276;22865;-78
2024/02/13 14:06:36;;;;;;;;;;;;;;;6.14;78.83;100393.98;137096;1276;22392;-76
2024/02/13 14:09:36;;;;;;;;;;;;;;;6.13;78.84;100395.25;136923;1276;23597;-79
2024/02/13 14:12:40;;;;;;;;;;;;;;;6.13;78.53;100393.33;137095;1276;23442;-77
2024/02/13 14:15:41;;;;;;;;;;;;;;;6.13;78.81;100398.77;137115;1276;22429;-77
2024/02/13 14:18:50;;;;;;;;;;;;;;;6.11;78.27;100403.53;137087;1276;22346;-81
2024/02/13 14:21:51;;;;;;;;;;;;;;;6.06;78.11;100409.35;137133;1276;22373;-79
2024/02/13 14:24:57;;;;;;;;;;;;;;;6.01;77.76;100409.46;137117;1276;22395;-76
2024/02/13 14:28:18;;;;;;;;;;;;;;;5.96;77.52;100409.35;137130;1276;22398;-77
2024/02/13 14:31:21;;;;;;;;;;;;;;;5.92;77.67;100416.90;137122;1276;23002;-77
2024/02/13 14:34:24;;;;;;;;;;;;;;;5.89;77.62;100417.27;137124;1270;22386;-77
2024/02/13 14:37:25;;;;;;;;;;;;;;;5.86;77.58;100418.44;137155;1276;22451;-76
2024/02/13 14:40:26;;;;;;;;;;;;;;;5.83;77.70;100426.17;137128;1276;22401;-76
2024/02/13 14:43:27;;;;;;;;;;;;;;;5.82;77.79;100427.84;137115;1276;22391;-78
2024/02/13 14:46:45;;;;;;;;;;;;;;;5.81;77.62;100431.11;137143;1276;22275;-77
2024/02/13 14:49:56;;;;;;;;;;;;;;;;;;;;;
2024/02/13 14:53:02;;;;;;;;;;;;;;;5.84;77.88;100436.67;137105;1276;23293;-77
2024/02/13 14:56:08;;;;;;;;;;;;;;;5.82;77.40;100437.30;137128;1273;22387;-77
2024/02/13 14:59:20;;;;;;;;;;;;;;;5.79;77.48;100436.00;137106;1276;22468;-79
2024/02/13 15:02:21;;;;;;;;;;;;;;;5.76;77.49;100443.96;137156;1262;22434;-78
2024/02/13 15:05:27;;;;;;;;;;;;;;;5.75;77.47;100443.04;137134;1273;22292;-76
2024/02/13 15:08:32;;;;;;;;;;;;;;;5.71;77.60;100442.69;137118;1276;22422;-78
2024/02/13 15:11:33;;;;;;;;;;;;;;;5.68;77.58;100448.39;137145;1276;22437;-77
2024/02/13 15:14:34;;;;;;;;;;;;;;;5.66;77.80;100451.70;137135;1276;22397;-77
2024/02/13 15:17:35;;;;;;;;;;;;;;;5.65;77.62;100452.49;137169;1276;23419;-77
2024/02/13 15:20:36;;;;;;;;;;;;;;;5.65;77.70;100457.76;137113;1276;22400;-77
2024/02/13 15:23:36;;;;;;;;;;;;;;;5.65;77.87;100463.89;136930;1276;23154;-76
2024/02/13 15:26:40;;;;;;;;;;;;;;;5.65;77.90;100461.09;137126;1276;23583;-77
2024/02/13 15:29:42;;;;;;;;;;;;;;;5.64;77.94;100462.05;137170;1264;22369;-78
2024/02/13 15:32:44;;;;;;;;;;;;;;;5.61;78.20;100465.08;137167;1276;22427;-76
2024/02/13 15:36:01;;;;;;;;;;;;;;;5.56;77.92;100460.94;137139;1273;22547;-77
2024/02/13 15:49:16;;;;;;;;;;;;;;;5.21;77.57;100479.73;137115;1276;22251;-76
2024/02/13 15:52:17;;;;;;;;;;;;;;;5.11;77.74;100484.20;137159;1276;23136;-76
2024/02/13 15:55:20;;;;;;;;;;;;;;;5.04;78.03;100487.77;137142;1276;22403;-77
2024/02/13 15:58:26;;;;;;;;;;;;;;;4.96;77.79;100486.66;137212;1276;22287;-76
2024/02/13 16:01:29;;;;;;;;;;;;;;;4.91;77.91;100489.09;137176;1276;22376;-77
2024/02/13 16:04:30;;;;;;;;;;;;;;;4.87;78.14;100495.35;136948;1276;22579;-76
2024/02/13 16:07:32;;;;;;;;;;;;;;;4.86;78.23;100494.11;137204;1273;22389;-76
2024/02/13 16:10:33;;;;;;;;;;;;;;;4.86;78.32;100497.09;137153;1276;22412;-77
2024/02/13 16:13:34;;;;;;;;;;;;;;;4.80;78.22;100502.10;137164;1276;22382;-77
2024/02/13 16:16:38;;;;;;;;;;;;;;;4.71;78.39;100503.35;137147;1276;22407;-77
2024/02/13 16:19:39;;;;;;;;;;;;;;;4.67;78.38;100506.40;137130;1276;22381;-77
2024/02/13 16:22:42;;;;;;;;;;;;;;;4.67;78.44;100510.63;137129;1276;23235;-79
2024/02/13 16:25:42;;;;;;;;;;;;;;;4.67;78.77;100514.85;137124;1276;23096;-82
2024/02/13 16:28:44;;;;;;;;;;;;;;;4.65;78.67;100516.90;137098;1276;23597;-78
2024/02/13 16:31:45;;;;;;;;;;;;;;;4.63;78.69;100521.95;137129;1276;22406;-77
2024/02/13 16:34:46;;;;;;;;;;;;;;;4.60;78.76;100526.25;137142;1277;23236;-80
2024/02/13 16:37:46;;;;;;;;;;;;;;;4.56;78.67;100524.64;137104;1272;23100;-78